sensor_id;sensor_type;location;lat;lon;timestamp;pressure;altitude;pressure_sealevel;temperature;humidity
70445;BME280;57902;49.638;11.070;2023-12-07T00:01:24;98477.59;;;0.24;100.00
70445;BME280;57902;49.638;11.070;2023-12-07T00:03:50;98482.66;;;0.24;100.00
70445;BME280;57902;49.638;11.070;2023-12-07T00:06:17;98475.19;;;0.33;100.00
70445;BME280;57902;49.638;11.070;2023-12-07T00:08:44;98481.94;;;0.32;100.00
70445;BME280;57902;49.638;11.070;2023-12-07T00:11:10;98482.75;;;0.30;100.00
70445;BME280;57902;49.638;11.070;2023-12-07T00:13:36;98482.78;;;0.31;100.00
70445;BME280;57902;49.638;11.070;2023-12-07T00:16:03;98478.53;;;0.30;100.00
70445;BME280;57902;49.638;11.070;2023-12-07T00:18:30;98491.16;;;0.27;100.00
70445;BME280;57902;49.638;11.070;2023-12-07T00:20:56;98486.94;;;0.29;100.00
70445;BME280;57902;49.638;11.070;2023-12-07T00:23:23;98487.78;;;0.27;100.00
70445;BME280;57902;49.638;11.070;2023-12-07T00:25:50;98490.31;;;0.27;100.00
70445;BME280;57902;49.638;11.070;2023-12-07T00:28:18;98496.16;;;0.23;100.00
70445;BME280;57902;49.638;11.070;2023-12-07T00:30:44;98499.56;;;0.25;100.00
70445;BME280;57902;49.638;11.070;2023-12-07T00:33:11;98497.03;;;0.26;100.00
70445;BME280;57902;49.638;11.070;2023-12-07T00:35:37;98504.69;;;0.28;100.00
70445;BME280;57902;49.638;11.070;2023-12-07T00:38:04;98509.84;;;0.32;100.00
70445;BME280;57902;49.638;11.070;2023-12-07T00:40:32;98504.06;;;0.41;100.00
70445;BME280;57902;49.638;11.070;2023-12-07T00:43:02;98504.91;;;0.43;100.00
70445;BME280;57902;49.638;11.070;2023-12-07T00:45:29;98510.81;;;0.42;100.00
70445;BME280;57902;49.638;11.070;2023-12-07T00:47:56;98509.06;;;0.38;100.00
70445;BME280;57902;49.638;11.070;2023-12-07T00:50:23;98518.25;;;0.30;100.00
70445;BME280;57902;49.638;11.070;2023-12-07T00:52:49;98514.81;;;0.28;100.00
70445;BME280;57902;49.638;11.070;2023-12-07T00:55:16;98516.44;;;0.23;100.00
70445;BME280;57902;49.638;11.070;2023-12-07T00:57:42;98519.81;;;0.23;100.00
70445;BME280;57902;49.638;11.070;2023-12-07T01:00:09;98517.25;;;0.22;100.00
70445;BME280;57902;49.638;11.070;2023-12-07T01:02:37;98522.28;;;0.19;100.00
70445;BME280;57902;49.638;11.070;2023-12-07T01:05:03;98518.84;;;0.13;100.00
70445;BME280;57902;49.638;11.070;2023-12-07T01:07:30;98520.50;;;0.13;100.00
70445;BME280;57902;49.638;11.070;2023-12-07T01:09:56;98523.94;;;0.15;100.00
70445;BME280;57902;49.638;11.070;2023-12-07T01:12:23;98528.16;;;0.16;100.00
70445;BME280;57902;49.638;11.070;2023-12-07T01:14:50;98530.75;;;0.19;100.00
70445;BME280;57902;49.638;11.070;2023-12-07T01:17:17;98537.56;;;0.23;100.00
70445;BME280;57902;49.638;11.070;2023-12-07T01:19:44;98536.72;;;0.23;100.00
70445;BME280;57902;49.638;11.070;2023-12-07T01:22:10;98543.50;;;0.24;100.00
70445;BME280;57902;49.638;11.070;2023-12-07T01:24:37;98547.75;;;0.26;100.00
70445;BME280;57902;49.638;11.070;2023-12-07T01:27:03;98546.91;;;0.26;100.00
70445;BME280;57902;49.638;11.070;2023-12-07T01:29:30;98544.41;;;0.27;100.00
70445;BME280;57902;49.638;11.070;2023-12-07T01:31:56;98553.72;;;0.28;100.00
70445;BME280;57902;49.638;11.070;2023-12-07T01:34:23;98560.47;;;0.28;100.00
70445;BME280;57902;49.638;11.070;2023-12-07T01:36:49;98563.84;;;0.27;100.00
70445;BME280;57902;49.638;11.070;2023-12-07T01:39:16;98567.19;;;0.26;100.00
70445;BME280;57902;49.638;11.070;2023-12-07T01:41:42;98568.91;;;0.27;100.00
70445;BME280;57902;49.638;11.070;2023-12-07T01:44:09;98573.13;;;0.28;100.00
70445;BME280;57902;49.638;11.070;2023-12-07T01:46:36;98568.94;;;0.28;100.00
70445;BME280;57902;49.638;11.070;2023-12-07T01:49:03;98572.31;;;0.29;100.00
70445;BME280;57902;49.638;11.070;2023-12-07T01:51:30;98573.22;;;0.31;100.00
70445;BME280;57902;49.638;11.070;2023-12-07T01:53:57;98569.06;;;0.36;100.00
70445;BME280;57902;49.638;11.070;2023-12-07T01:56:24;98569.88;;;0.35;100.00
70445;BME280;57902;49.638;11.070;2023-12-07T01:58:52;98570.72;;;0.34;100.00
70445;BME280;57902;49.638;11.070;2023-12-07T02:01:18;98578.38;;;0.37;100.00
70445;BME280;57902;49.638;11.070;2023-12-07T02:03:45;98580.16;;;0.43;100.00
70445;BME280;57902;49.638;11.070;2023-12-07T02:06:12;98583.50;;;0.42;100.00
70445;BME280;57902;49.638;11.070;2023-12-07T02:08:40;98577.53;;;0.40;100.00
70445;BME280;57902;49.638;11.070;2023-12-07T02:11:08;98587.66;;;0.38;100.00
70445;BME280;57902;49.638;11.070;2023-12-07T02:13:40;98591.06;;;0.37;100.00
70445;BME280;57902;49.638;11.070;2023-12-07T02:16:15;98588.56;;;0.40;100.00
70445;BME280;57902;49.638;11.070;2023-12-07T02:18:50;98591.97;;;0.42;100.00
70445;BME280;57902;49.638;11.070;2023-12-07T02:21:25;98583.47;;;0.39;100.00
70445;BME280;57902;49.638;11.070;2023-12-07T02:23:54;98591.75;;;0.28;100.00
70445;BME280;57902;49.638;11.070;2023-12-07T02:26:22;98586.72;;;0.30;
70445;BME280;57902;49.638;11.070;2023-12-07T02:28:54;98594.31;;;0.30;100.00
70445;BME280;57902;49.638;11.070;2023-12-07T02:31:21;98592.56;;;0.27;100.00
70445;BME280;57902;49.638;11.070;2023-12-07T02:33:47;98591.75;;;0.27;100.00
70445;BME280;57902;49.638;11.070;2023-12-07T02:36:17;98587.44;;;0.23;100.00
70445;BME280;57902;49.638;11.070;2023-12-07T02:38:46;98586.63;;;0.24;100.00
70445;BME280;57902;49.638;11.070;2023-12-07T02:41:13;98583.25;;;0.26;100.00
70445;BME280;57902;49.638;11.070;2023-12-07T02:43:40;98587.56;;;0.30;100.00
70445;BME280;57902;49.638;11.070;2023-12-07T02:46:07;98582.50;;;0.32;100.00
70445;BME280;57902;49.638;11.070;2023-12-07T02:48:34;98578.16;;;0.25;100.00
70445;BME280;57902;49.638;11.070;2023-12-07T02:51:00;98576.31;;;0.16;100.00
70445;BME280;57902;49.638;11.070;2023-12-07T02:53:27;98578.78;;;0.11;100.00
70445;BME280;57902;49.638;11.070;2023-12-07T02:55:53;98581.28;;;0.08;100.00
70445;BME280;57902;49.638;11.070;2023-12-07T02:58:20;98593.84;;;0.02;100.00
70445;BME280;57902;49.638;11.070;2023-12-07T03:00:46;98589.66;;;0.04;100.00
70445;BME280;57902;49.638;11.070;2023-12-07T03:03:13;98592.13;;;0.01;100.00
70445;BME280;57902;49.638;11.070;2023-12-07T03:05:39;98593.78;;;-0.01;100.00
70445;BME280;57902;49.638;11.070;2023-12-07T03:08:06;98593.75;;;-0.04;100.00
70445;BME280;57902;49.638;11.070;2023-12-07T03:10:32;98598.00;;;-0.02;100.00
70445;BME280;57902;49.638;11.070;2023-12-07T03:12:59;98602.16;;;-0.05;100.00
70445;BME280;57902;49.638;11.070;2023-12-07T03:15:25;98598.88;;;-0.01;100.00
70445;BME280;57902;49.638;11.070;2023-12-07T03:17:52;98598.88;;;-0.01;100.00
70445;BME280;57902;49.638;11.070;2023-12-07T03:20:19;98604.84;;;0.04;100.00
70445;BME280;57902;49.638;11.070;2023-12-07T03:22:45;98602.28;;;0.03;100.00
70445;BME280;57902;49.638;11.070;2023-12-07T03:25:12;98605.66;;;0.00;100.00
70445;BME280;57902;49.638;11.070;2023-12-07T03:27:39;98603.16;;;0.02;100.00
70445;BME280;57902;49.638;11.070;2023-12-07T03:30:05;98603.00;;;-0.05;100.00
70445;BME280;57902;49.638;11.070;2023-12-07T03:32:32;98602.16;;;-0.05;100.00
70445;BME280;57902;49.638;11.070;2023-12-07T03:34:59;98610.53;;;-0.09;100.00
70445;BME280;57902;49.638;11.070;2023-12-07T03:37:25;98610.53;;;-0.09;100.00
70445;BME280;57902;49.638;11.070;2023-12-07T03:39:52;98610.47;;;-0.14;100.00
70445;BME280;57902;49.638;11.070;2023-12-07T03:42:18;98612.88;;;-0.20;100.00
70445;BME280;57902;49.638;11.070;2023-12-07T03:45:05;98612.00;;;-0.21;100.00
70445;BME280;57902;49.638;11.070;2023-12-07T03:47:32;98614.66;;;-0.16;100.00
70445;BME280;57902;49.638;11.070;2023-12-07T03:49:58;98618.00;;;-0.17;100.00
70445;BME280;57902;49.638;11.070;2023-12-07T03:52:25;98614.69;;;-0.14;100.00
70445;BME280;57902;49.638;11.070;2023-12-07T03:54:52;98618.84;;;-0.16;100.00
70445;BME280;57902;49.638;11.070;2023-12-07T03:57:18;98617.91;;;-0.22;100.00
70445;BME280;57902;49.638;11.070;2023-12-07T03:59:44;98617.84;;;-0.26;100.00
70445;BME280;57902;49.638;11.070;2023-12-07T04:02:13;98627.03;;;-0.30;100.00
70445;BME280;57902;49.638;11.070;2023-12-07T04:04:39;98625.38;;;-0.29;100.00
70445;BME280;57902;49.638;11.070;2023-12-07T04:07:06;98621.91;;;-0.33;100.00
70445;BME280;57902;49.638;11.070;2023-12-07T04:09:32;98636.06;;;-0.43;100.00
70445;BME280;57902;49.638;11.070;2023-12-07T04:11:59;98639.41;;;-0.47;100.00
70445;BME280;57902;49.638;11.070;2023-12-07T04:14:25;98641.81;;;-0.51;100.00
70445;BME280;57902;49.638;11.070;2023-12-07T04:16:51;98644.28;;;-0.55;100.00
70445;BME280;57902;49.638;11.070;2023-12-07T04:19:18;98648.59;;;-0.50;100.00
70445;BME280;57902;49.638;11.070;2023-12-07T04:21:45;98643.41;;;-0.57;100.00
70445;BME280;57902;49.638;11.070;2023-12-07T04:24:11;98643.22;;;-0.66;100.00
70445;BME280;57902;49.638;11.070;2023-12-07T04:26:38;98636.41;;;-0.68;100.00
70445;BME280;57902;49.638;11.070;2023-12-07T04:29:04;98639.16;;;-0.58;100.00
70445;BME280;57902;49.638;11.070;2023-12-07T04:31:31;98638.31;;;-0.58;100.00
70445;BME280;57902;49.638;11.070;2023-12-07T04:33:57;98642.53;;;-0.59;100.00
70445;BME280;57902;49.638;11.070;2023-12-07T04:36:24;98645.94;;;-0.57;100.00
70445;BME280;57902;49.638;11.070;2023-12-07T04:38:51;98647.81;;;-0.48;100.00
70445;BME280;57902;49.638;11.070;2023-12-07T04:41:17;98644.31;;;-0.53;100.00
70445;BME280;57902;49.638;11.070;2023-12-07T04:43:44;98655.25;;;-0.56;100.00
70445;BME280;57902;49.638;11.070;2023-12-07T04:46:10;98643.41;;;-0.57;100.00
70445;BME280;57902;49.638;11.070;2023-12-07T04:48:36;98656.19;;;-0.50;100.00
70445;BME280;57902;49.638;11.070;2023-12-07T04:51:03;98651.84;;;-0.56;100.00
70445;BME280;57902;49.638;11.070;2023-12-07T04:53:30;98660.97;;;-0.64;100.00
70445;BME280;57902;49.638;11.070;2023-12-07T04:55:56;98654.19;;;-0.65;100.00
70445;BME280;57902;49.638;11.070;2023-12-07T04:58:23;98659.34;;;-0.61;100.00
70445;BME280;57902;49.638;11.070;2023-12-07T05:00:49;98659.34;;;-0.61;100.00
70445;BME280;57902;49.638;11.070;2023-12-07T05:03:16;98659.31;;;-0.62;100.00
70445;BME280;57902;49.638;11.070;2023-12-07T05:05:42;98658.41;;;-0.66;100.00
70445;BME280;57902;49.638;11.070;2023-12-07T05:08:09;98662.41;;;-0.76;100.00
70445;BME280;57902;49.638;11.070;2023-12-07T05:10:35;98658.00;;;-0.84;100.00
70445;BME280;57902;49.638;11.070;2023-12-07T05:13:02;98664.84;;;-0.80;100.00
70445;BME280;57902;49.638;11.070;2023-12-07T05:15:28;98663.84;;;-0.87;100.00
70445;BME280;57902;49.638;11.070;2023-12-07T05:17:55;98663.78;;;-0.90;100.00
70445;BME280;57902;49.638;11.070;2023-12-07T05:20:21;98665.41;;;-0.94;100.00
70445;BME280;57902;49.638;11.070;2023-12-07T05:22:50;98670.47;;;-0.94;100.00
70445;BME280;57902;49.638;11.070;2023-12-07T05:25:17;98673.06;;;-0.91;100.00
70445;BME280;57902;49.638;11.070;2023-12-07T05:27:43;98668.16;;;-0.83;100.00
70445;BME280;57902;49.638;11.070;2023-12-07T05:30:10;98671.66;;;-0.78;100.00
70445;BME280;57902;49.638;11.070;2023-12-07T05:32:37;98673.91;;;-0.90;100.00
70445;BME280;57902;49.638;11.070;2023-12-07T05:35:04;98682.25;;;-0.94;100.00
70445;BME280;57902;49.638;11.070;2023-12-07T05:37:32;98672.94;;;-0.97;100.00
70445;BME280;57902;49.638;11.070;2023-12-07T05:39:58;98680.50;;;-0.98;100.00
70445;BME280;57902;49.638;11.070;2023-12-07T05:42:25;98678.00;;;-0.97;100.00
70445;BME280;57902;49.638;11.070;2023-12-07T05:44:51;98671.19;;;-0.99;100.00
70445;BME280;57902;49.638;11.070;2023-12-07T05:47:18;98675.25;;;-1.04;100.00
70445;BME280;57902;49.638;11.070;2023-12-07T05:49:44;98678.81;;;-0.98;100.00
70445;BME280;57902;49.638;11.070;2023-12-07T05:52:11;98689.66;;;-1.02;100.00
70445;BME280;57902;49.638;11.070;2023-12-07T05:54:39;98688.09;;;-0.98;100.00
70445;BME280;57902;49.638;11.070;2023-12-07T05:57:08;98688.88;;;-0.99;100.00
70445;BME280;57902;49.638;11.070;2023-12-07T05:59:38;98690.72;;;-0.94;100.00
70445;BME280;57902;49.638;11.070;2023-12-07T06:02:05;98691.53;;;-0.95;100.00
70445;BME280;57902;49.638;11.070;2023-12-07T06:04:33;98689.13;;;-0.89;100.00
70445;BME280;57902;49.638;11.070;2023-12-07T06:06:59;98694.28;;;-0.84;100.00
70445;BME280;57902;49.638;11.070;2023-12-07T06:09:26;98695.97;;;-0.84;100.00
70445;BME280;57902;49.638;11.070;2023-12-07T06:11:52;98687.66;;;-0.79;100.00
70445;BME280;57902;49.638;11.070;2023-12-07T06:14:19;98692.72;;;-0.79;100.00
70445;BME280;57902;49.638;11.070;2023-12-07T06:16:45;98693.59;;;-0.77;100.00
70445;BME280;57902;49.638;11.070;2023-12-07T06:19:12;98693.63;;;-0.75;100.00
70445;BME280;57902;49.638;11.070;2023-12-07T06:21:38;98692.88;;;-0.71;100.00
70445;BME280;57902;49.638;11.070;2023-12-07T06:24:05;98697.19;;;-0.67;100.00
70445;BME280;57902;49.638;11.070;2023-12-07T06:26:31;98700.69;;;-0.62;100.00
70445;BME280;57902;49.638;11.070;2023-12-07T06:28:59;98699.03;;;-0.61;100.00
70445;BME280;57902;49.638;11.070;2023-12-07T06:31:26;98697.47;;;-0.55;100.00
70445;BME280;57902;49.638;11.070;2023-12-07T06:33:52;98703.34;;;-0.57;100.00
70445;BME280;57902;49.638;11.070;2023-12-07T06:36:23;98705.22;;;-0.48;100.00
70445;BME280;57902;49.638;11.070;2023-12-07T06:38:50;98706.16;;;-0.43;100.00
70445;BME280;57902;49.638;11.070;2023-12-07T06:41:16;98710.19;;;-0.51;100.00
70445;BME280;57902;49.638;11.070;2023-12-07T06:43:42;98706.84;;;-0.50;100.00
70445;BME280;57902;49.638;11.070;2023-12-07T06:46:13;98710.28;;;-0.48;100.00
70445;BME280;57902;49.638;11.070;2023-12-07T06:48:40;98710.13;;;-0.55;100.00
70445;BME280;57902;49.638;11.070;2023-12-07T06:51:07;98704.19;;;-0.57;100.00
70445;BME280;57902;49.638;11.070;2023-12-07T06:53:34;98706.75;;;-0.55;100.00
70445;BME280;57902;49.638;11.070;2023-12-07T06:56:00;98704.19;;;-0.57;100.00
70445;BME280;57902;49.638;11.070;2023-12-07T06:58:27;98705.84;;;-0.59;100.00
70445;BME280;57902;49.638;11.070;2023-12-07T07:00:53;98709.97;;;-0.62;100.00
70445;BME280;57902;49.638;11.070;2023-12-07T07:03:20;98713.97;;;-0.72;100.00
70445;BME280;57902;49.638;11.070;2023-12-07T07:05:46;98717.41;;;-0.70;100.00
70445;BME280;57902;49.638;11.070;2023-12-07T07:08:13;98712.41;;;-0.67;100.00
70445;BME280;57902;49.638;11.070;2023-12-07T07:10:40;98722.53;;;-0.67;100.00
70445;BME280;57902;49.638;11.070;2023-12-07T07:13:06;98730.91;;;-0.69;100.00
70445;BME280;57902;49.638;11.070;2023-12-07T07:15:33;98723.31;;;-0.69;100.00
70445;BME280;57902;49.638;11.070;2023-12-07T07:18:00;98726.75;;;-0.67;100.00
70445;BME280;57902;49.638;11.070;2023-12-07T07:20:27;98731.78;;;-0.69;100.00
70445;BME280;57902;49.638;11.070;2023-12-07T07:22:54;98731.00;;;-0.65;100.00
70445;BME280;57902;49.638;11.070;2023-12-07T07:25:20;98732.72;;;-0.64;100.00
70445;BME280;57902;49.638;11.070;2023-12-07T07:27:47;98737.06;;;-0.58;100.00
70445;BME280;57902;49.638;11.070;2023-12-07T07:30:13;98733.81;;;-0.52;100.00
70445;BME280;57902;49.638;11.070;2023-12-07T07:32:40;98738.84;;;-0.54;100.00
70445;BME280;57902;49.638;11.070;2023-12-07T07:35:07;98734.69;;;-0.50;100.00
70445;BME280;57902;49.638;11.070;2023-12-07T07:37:34;98744.97;;;-0.43;100.00
70445;BME280;57902;49.638;11.070;2023-12-07T07:40:00;98743.41;;;-0.38;100.00
70445;BME280;57902;49.638;11.070;2023-12-07T07:42:33;98745.91;;;-0.39;100.00
70445;BME280;57902;49.638;11.070;2023-12-07T07:45:00;98747.75;;;-0.33;100.00
70445;BME280;57902;49.638;11.070;2023-12-07T07:47:26;98745.19;;;-0.33;100.00
70445;BME280;57902;49.638;11.070;2023-12-07T07:49:53;98741.00;;;-0.31;100.00
70445;BME280;57902;49.638;11.070;2023-12-07T07:52:19;98743.56;;;-0.30;100.00
70445;BME280;57902;49.638;11.070;2023-12-07T07:54:46;98744.59;;;-0.22;100.00
70445;BME280;57902;49.638;11.070;2023-12-07T07:57:13;98738.00;;;-0.13;100.00
70445;BME280;57902;49.638;11.070;2023-12-07T07:59:39;98732.19;;;-0.09;100.00
70445;BME280;57902;49.638;11.070;2023-12-07T08:02:06;98736.47;;;-0.07;100.00
70445;BME280;57902;49.638;11.070;2023-12-07T08:04:32;98735.63;;;-0.07;100.00
70445;BME280;57902;49.638;11.070;2023-12-07T08:06:59;98743.38;;;0.02;100.00
70445;BME280;57902;49.638;11.070;2023-12-07T08:09:25;98744.31;;;0.07;100.00
70445;BME280;57902;49.638;11.070;2023-12-07T08:11:52;98735.16;;;0.14;100.00
70445;BME280;57902;49.638;11.070;2023-12-07T08:14:18;98740.31;;;0.19;100.00
70445;BME280;57902;49.638;11.070;2023-12-07T08:16:45;98736.94;;;0.18;100.00
70445;BME280;57902;49.638;11.070;2023-12-07T08:19:13;98749.72;;;0.23;100.00
70445;BME280;57902;49.638;11.070;2023-12-07T08:21:40;98748.03;;;0.25;100.00
70445;BME280;57902;49.638;11.070;2023-12-07T08:24:06;98742.22;;;0.29;100.00
70445;BME280;57902;49.638;11.070;2023-12-07T08:26:33;98738.97;;;0.36;100.00
70445;BME280;57902;49.638;11.070;2023-12-07T08:29:00;98753.31;;;0.34;100.00
70445;BME280;57902;49.638;11.070;2023-12-07T08:31:26;98754.97;;;0.33;100.00
70445;BME280;57902;49.638;11.070;2023-12-07T08:33:53;98757.56;;;0.37;100.00
70445;BME280;57902;49.638;11.070;2023-12-07T08:36:20;98757.69;;;0.43;100.00
70445;BME280;57902;49.638;11.070;2023-12-07T08:38:47;98753.53;;;0.46;100.00
70445;BME280;57902;49.638;11.070;2023-12-07T08:41:13;98758.72;;;0.52;100.00
70445;BME280;57902;49.638;11.070;2023-12-07T08:43:40;98759.47;;;0.48;100.00
70445;BME280;57902;49.638;11.070;2023-12-07T08:46:07;98754.66;;;0.62;100.00
70445;BME280;57902;49.638;11.070;2023-12-07T08:48:36;98756.41;;;0.65;100.00
70445;BME280;57902;49.638;11.070;2023-12-07T08:51:05;98757.44;;;0.78;100.00
70445;BME280;57902;49.638;11.070;2023-12-07T08:53:31;98760.13;;;0.84;100.00
70445;BME280;57902;49.638;11.070;2023-12-07T08:55:58;98758.53;;;0.91;100.00
70445;BME280;57902;49.638;11.070;2023-12-07T08:58:24;98765.47;;;1.01;100.00
70445;BME280;57902;49.638;11.070;2023-12-07T09:00:51;98767.25;;;1.07;100.00
70445;BME280;57902;49.638;11.070;2023-12-07T09:03:18;98775.72;;;1.07;100.00
70445;BME280;57902;49.638;11.070;2023-12-07T09:05:44;98775.03;;;1.17;100.00
70445;BME280;57902;49.638;11.070;2023-12-07T09:08:11;98773.28;;;1.13;100.00
70445;BME280;57902;49.638;11.070;2023-12-07T09:10:38;98769.03;;;1.12;100.00
70445;BME280;57902;49.638;11.070;2023-12-07T09:13:04;98770.81;;;1.18;100.00
70445;BME280;57902;49.638;11.070;2023-12-07T09:15:31;98770.84;;;1.19;100.00
70445;BME280;57902;49.638;11.070;2023-12-07T09:17:58;98768.22;;;1.13;100.00
70445;BME280;57902;49.638;11.070;2023-12-07T09:20:25;98770.19;;;1.33;100.00
70445;BME280;57902;49.638;11.070;2023-12-07T09:22:51;98768.47;;;1.32;100.00
70445;BME280;57902;49.638;11.070;2023-12-07T09:25:18;98762.69;;;1.40;100.00
70445;BME280;57902;49.638;11.070;2023-12-07T09:27:44;98771.47;;;1.63;100.00
70445;BME280;57902;49.638;11.070;2023-12-07T09:30:11;98771.56;;;1.69;100.00
70445;BME280;57902;49.638;11.070;2023-12-07T09:32:40;98771.41;;;1.58;100.00
70445;BME280;57902;49.638;11.070;2023-12-07T09:35:08;98775.50;;;1.48;100.00
70445;BME280;57902;49.638;11.070;2023-12-07T09:37:37;98778.09;;;1.51;100.00
70445;BME280;57902;49.638;11.070;2023-12-07T09:40:05;98765.47;;;1.56;100.00
70445;BME280;57902;49.638;11.070;2023-12-07T09:42:32;98770.47;;;1.50;100.00
70445;BME280;57902;49.638;11.070;2023-12-07T09:45:03;98760.38;;;1.56;100.00
70445;BME280;57902;49.638;11.070;2023-12-07T09:47:32;98761.25;;;1.60;100.00
70445;BME280;57902;49.638;11.070;2023-12-07T09:50:05;98757.19;;;1.69;100.00
70445;BME280;57902;49.638;11.070;2023-12-07T09:52:32;98757.06;;;1.62;100.00
70445;BME280;57902;49.638;11.070;2023-12-07T09:54:59;98763.13;;;1.71;100.00
70445;BME280;57902;49.638;11.070;2023-12-07T09:57:27;98755.44;;;1.67;100.00
70445;BME280;57902;49.638;11.070;2023-12-07T09:59:57;98752.75;;;1.56;100.00
70445;BME280;57902;49.638;11.070;2023-12-07T10:02:24;98749.06;;;1.34;100.00
70445;BME280;57902;49.638;11.070;2023-12-07T10:05:03;98744.94;;;1.42;100.00
70445;BME280;57902;49.638;11.070;2023-12-07T10:07:34;98741.88;;;1.66;100.00
70445;BME280;57902;49.638;11.070;2023-12-07T10:10:03;98731.78;;;1.72;100.00
70445;BME280;57902;49.638;11.070;2023-12-07T10:12:31;98731.78;;;1.72;100.00
70445;BME280;57902;49.638;11.070;2023-12-07T10:15:01;98731.47;;;1.49;100.00
70445;BME280;57902;49.638;11.070;2023-12-07T10:17:58;98731.56;;;1.55;100.00
70445;BME280;57902;49.638;11.070;2023-12-07T10:20:27;98735.78;;;1.53;100.00
70445;BME280;57902;49.638;11.070;2023-12-07T10:23:01;98732.44;;;1.57;100.00
70445;BME280;57902;49.638;11.070;2023-12-07T10:25:32;98735.91;;;1.64;100.00
70445;BME280;57902;49.638;11.070;2023-12-07T10:28:00;98725.94;;;1.77;100.00
70445;BME280;57902;49.638;11.070;2023-12-07T10:30:27;98732.91;;;1.93;100.00
70445;BME280;57902;49.638;11.070;2023-12-07T10:32:53;98740.22;;;1.70;100.00
70445;BME280;57902;49.638;11.070;2023-12-07T10:35:21;98738.47;;;1.66;100.00
70445;BME280;57902;49.638;11.070;2023-12-07T10:37:47;98734.25;;;1.65;100.00
70445;BME280;57902;49.638;11.070;2023-12-07T10:40:14;98726.59;;;1.62;100.00
70445;BME280;57902;49.638;11.070;2023-12-07T10:42:46;98719.91;;;1.70;100.00
70445;BME280;57902;49.638;11.070;2023-12-07T10:45:15;98718.19;;;1.69;100.00
70445;BME280;57902;49.638;11.070;2023-12-07T10:47:44;98717.41;;;1.74;100.00
70445;BME280;57902;49.638;11.070;2023-12-07T10:50:13;98719.84;;;1.67;100.00
70445;BME280;57902;49.638;11.070;2023-12-07T10:52:45;98724.91;;;1.64;100.00
70445;BME280;57902;49.638;11.070;2023-12-07T10:55:20;98721.56;;;1.68;100.00
70445;BME280;57902;49.638;11.070;2023-12-07T10:57:52;98721.38;;;1.54;100.00
70445;BME280;57902;49.638;11.070;2023-12-07T11:00:19;98719.59;;;1.48;100.00
70445;BME280;57902;49.638;11.070;2023-12-07T11:03:02;98721.19;;;1.40;100.00
70445;BME280;57902;49.638;11.070;2023-12-07T11:05:30;98716.91;;;1.37;100.00
70445;BME280;57902;49.638;11.070;2023-12-07T11:08:02;98715.94;;;1.29;100.00
70445;BME280;57902;49.638;11.070;2023-12-07T11:10:43;98717.59;;;1.26;100.00
70445;BME280;57902;49.638;11.070;2023-12-07T11:13:17;98715.06;;;1.26;100.00
70445;BME280;57902;49.638;11.070;2023-12-07T11:15:45;98713.56;;;1.38;100.00
70445;BME280;57902;49.638;11.070;2023-12-07T11:18:12;98701.75;;;1.44;100.00
70445;BME280;57902;49.638;11.070;2023-12-07T11:20:42;98702.66;;;1.47;100.00
70445;BME280;57902;49.638;11.070;2023-12-07T11:23:10;98692.63;;;1.56;100.00
70445;BME280;57902;49.638;11.070;2023-12-07T11:25:37;98687.47;;;1.52;100.00
70445;BME280;57902;49.638;11.070;2023-12-07T11:28:05;98689.81;;;1.38;100.00
70445;BME280;57902;49.638;11.070;2023-12-07T11:30:34;98679.84;;;1.52;100.00
70445;BME280;57902;49.638;11.070;2023-12-07T11:33:05;98677.41;;;1.60;100.00
70445;BME280;57902;49.638;11.070;2023-12-07T11:35:32;98673.16;;;1.58;100.00
70445;BME280;57902;49.638;11.070;2023-12-07T11:38:09;98669.03;;;1.67;100.00
70445;BME280;57902;49.638;11.070;2023-12-07T11:40:40;98662.44;;;1.83;100.00
70445;BME280;57902;49.638;11.070;2023-12-07T11:43:16;98661.72;;;1.93;100.00
70445;BME280;57902;49.638;11.070;2023-12-07T11:45:49;98666.72;;;1.84;100.00
70445;BME280;57902;49.638;11.070;2023-12-07T11:48:16;98664.13;;;1.81;100.00
70445;BME280;57902;49.638;11.070;2023-12-07T11:50:58;98653.22;;;1.89;100.00
70445;BME280;57902;49.638;11.070;2023-12-07T11:53:32;98649.06;;;2.01;100.00
70445;BME280;57902;49.638;11.070;2023-12-07T11:56:04;98648.16;;;1.91;100.00
70445;BME280;57902;49.638;11.070;2023-12-07T11:58:32;98644.00;;;2.01;100.00
70445;BME280;57902;49.638;11.070;2023-12-07T12:01:03;98633.84;;;2.04;100.00
70445;BME280;57902;49.638;11.070;2023-12-07T12:03:31;98643.97;;;1.98;100.00
70445;BME280;57902;49.638;11.070;2023-12-07T12:05:58;98638.97;;;2.07;100.00
70445;BME280;57902;49.638;11.070;2023-12-07T12:08:25;98635.41;;;1.89;100.00
70445;BME280;57902;49.638;11.070;2023-12-07T12:10:52;98628.56;;;1.84;100.00
70445;BME280;57902;49.638;11.070;2023-12-07T12:13:19;98633.78;;;1.96;100.00
70445;BME280;57902;49.638;11.070;2023-12-07T12:15:52;98633.84;;;2.04;100.00
70445;BME280;57902;49.638;11.070;2023-12-07T12:18:18;98632.22;;;2.07;100.00
70445;BME280;57902;49.638;11.070;2023-12-07T12:20:45;98638.28;;;2.22;100.00
70445;BME280;57902;49.638;11.070;2023-12-07T12:23:12;98643.41;;;2.25;100.00
70445;BME280;57902;49.638;11.070;2023-12-07T12:25:38;98635.03;;;2.37;100.00
70445;BME280;57902;49.638;11.070;2023-12-07T12:28:07;98635.03;;;2.37;100.00
70445;BME280;57902;49.638;11.070;2023-12-07T12:30:34;98628.91;;;2.18;100.00
70445;BME280;57902;49.638;11.070;2023-12-07T12:33:00;98630.69;;;2.26;100.00
70445;BME280;57902;49.638;11.070;2023-12-07T12:35:28;98619.53;;;2.14;100.00
70445;BME280;57902;49.638;11.070;2023-12-07T12:37:54;98620.28;;;2.02;100.00
70445;BME280;57902;49.638;11.070;2023-12-07T12:40:23;98627.84;;;1.96;100.00
70445;BME280;57902;49.638;11.070;2023-12-07T12:42:51;98624.25;;;1.77;100.00
70445;BME280;57902;49.638;11.070;2023-12-07T12:45:21;98620.00;;;1.77;100.00
70445;BME280;57902;49.638;11.070;2023-12-07T12:47:48;98618.28;;;1.76;100.00